sensor_id;sensor_type;location;lat;lon;timestamp;pressure;altitude;pressure_sealevel;temperature;humidity
63700;BME280;49845;47.130;142.766;2024-03-02T00:00:59;98363.91;;;-7.22;87.03
63700;BME280;49845;47.130;142.766;2024-03-02T00:03:33;98374.28;;;-7.13;87.53
63700;BME280;49845;47.130;142.766;2024-03-02T00:06:06;98388.22;;;-6.96;87.57
63700;BME280;49845;47.130;142.766;2024-03-02T00:08:40;98384.50;;;-7.10;85.87
63700;BME280;49845;47.130;142.766;2024-03-02T00:11:14;98387.81;;;-7.12;86.39
63700;BME280;49845;47.130;142.766;2024-03-02T00:13:49;98381.22;;;-7.04;86.11
63700;BME280;49845;47.130;142.766;2024-03-02T00:16:31;98385.81;;;-6.89;85.90
63700;BME280;49845;47.130;142.766;2024-03-02T00:19:04;98386.88;;;-6.80;85.08
63700;BME280;49845;47.130;142.766;2024-03-02T00:21:38;98388.44;;;-6.47;84.06
63700;BME280;49845;47.130;142.766;2024-03-02T00:24:21;98286.09;;;-6.82;83.73
63700;BME280;49845;47.130;142.766;2024-03-02T00:27:01;98356.81;;;-6.19;82.80
63700;BME280;49845;47.130;142.766;2024-03-02T00:29:36;98389.75;;;-5.78;83.09
63700;BME280;49845;47.130;142.766;2024-03-02T00:32:13;98366.31;;;-5.61;82.66
63700;BME280;49845;47.130;142.766;2024-03-02T00:34:46;98387.56;;;-5.58;79.62
63700;BME280;49845;47.130;142.766;2024-03-02T00:37:19;98383.25;;;-5.64;80.50
63700;BME280;49845;47.130;142.766;2024-03-02T00:39:52;98382.63;;;-5.50;80.57
63700;BME280;49845;47.130;142.766;2024-03-02T00:42:26;98379.22;;;-5.51;79.69
63700;BME280;49845;47.130;142.766;2024-03-02T00:45:00;98386.81;;;-5.52;79.58
63700;BME280;49845;47.130;142.766;2024-03-02T00:47:32;98384.72;;;-5.75;79.46
63700;BME280;49845;47.130;142.766;2024-03-02T00:50:06;98399.66;;;-5.93;80.30
63700;BME280;49845;47.130;142.766;2024-03-02T00:52:51;98391.06;;;-6.01;81.64
63700;BME280;49845;47.130;142.766;2024-03-02T00:55:24;98392.72;;;-6.03;81.39
63700;BME280;49845;47.130;142.766;2024-03-02T00:57:59;98386.63;;;-6.10;81.97
63700;BME280;49845;47.130;142.766;2024-03-02T01:00:32;98394.00;;;-6.24;82.23
63700;BME280;49845;47.130;142.766;2024-03-02T01:03:06;98397.31;;;-6.28;82.72
63700;BME280;49845;47.130;142.766;2024-03-02T01:05:42;98400.00;;;-6.20;82.40
63700;BME280;49845;47.130;142.766;2024-03-02T01:08:15;98371.75;;;-6.34;81.94
63700;BME280;49845;47.130;142.766;2024-03-02T01:10:48;98392.63;;;-6.07;81.59
63700;BME280;49845;47.130;142.766;2024-03-02T01:13:23;98412.13;;;-6.07;80.09
63700;BME280;49845;47.130;142.766;2024-03-02T01:15:56;98414.13;;;-6.33;80.53
63700;BME280;49845;47.130;142.766;2024-03-02T01:18:29;98406.63;;;-6.68;80.33
63700;BME280;49845;47.130;142.766;2024-03-02T01:21:02;98401.25;;;-6.80;81.44
63700;BME280;49845;47.130;142.766;2024-03-02T01:23:35;98399.75;;;-6.72;81.57
63700;BME280;49845;47.130;142.766;2024-03-02T01:26:09;98399.50;;;-6.83;81.22
63700;BME280;49845;47.130;142.766;2024-03-02T01:28:43;98400.63;;;-7.08;82.32
63700;BME280;49845;47.130;142.766;2024-03-02T01:31:16;98386.31;;;-7.41;82.30
63700;BME280;49845;47.130;142.766;2024-03-02T01:33:49;98413.78;;;-7.57;82.87
63700;BME280;49845;47.130;142.766;2024-03-02T01:36:22;98414.81;;;-7.51;83.41
63700;BME280;49845;47.130;142.766;2024-03-02T01:38:55;98415.00;;;-7.42;82.78
63700;BME280;49845;47.130;142.766;2024-03-02T01:41:28;98420.25;;;-7.35;82.26
63700;BME280;49845;47.130;142.766;2024-03-02T01:44:04;98427.03;;;-7.34;81.67
63700;BME280;49845;47.130;142.766;2024-03-02T01:46:37;98427.22;;;-7.28;82.80
63700;BME280;49845;47.130;142.766;2024-03-02T01:49:10;98425.84;;;-7.14;81.87
63700;BME280;49845;47.130;142.766;2024-03-02T01:51:43;98413.09;;;-7.17;81.47
63700;BME280;49845;47.130;142.766;2024-03-02T01:54:16;98408.00;;;-7.19;81.13
63700;BME280;49845;47.130;142.766;2024-03-02T01:56:51;98420.78;;;-7.14;80.60
63700;BME280;49845;47.130;142.766;2024-03-02T01:59:26;98424.81;;;-7.22;80.52
63700;BME280;49845;47.130;142.766;2024-03-02T02:01:59;98426.50;;;-7.56;81.01
63700;BME280;49845;47.130;142.766;2024-03-02T02:04:32;98426.50;;;-7.56;81.65
63700;BME280;49845;47.130;142.766;2024-03-02T02:07:05;98431.09;;;-7.74;81.25
63700;BME280;49845;47.130;142.766;2024-03-02T02:09:39;98435.22;;;-7.78;81.56
63700;BME280;49845;47.130;142.766;2024-03-02T02:12:12;98428.34;;;-7.82;82.08
63700;BME280;49845;47.130;142.766;2024-03-02T02:14:51;98434.44;;;-7.75;82.60
63700;BME280;49845;47.130;142.766;2024-03-02T02:17:24;98425.28;;;-8.02;82.45
63700;BME280;49845;47.130;142.766;2024-03-02T02:19:57;98444.78;;;-7.99;82.26
63700;BME280;49845;47.130;142.766;2024-03-02T02:22:32;98437.22;;;-7.98;83.52
63700;BME280;49845;47.130;142.766;2024-03-02T02:25:06;98441.00;;;-7.84;83.90
63700;BME280;49845;47.130;142.766;2024-03-02T02:27:38;98425.28;;;-7.70;83.90
63700;BME280;49845;47.130;142.766;2024-03-02T02:30:13;98434.66;;;-7.66;82.92
63700;BME280;49845;47.130;142.766;2024-03-02T02:32:52;98447.06;;;-7.77;82.83
63700;BME280;49845;47.130;142.766;2024-03-02T02:35:26;98442.31;;;-7.96;82.48
63700;BME280;49845;47.130;142.766;2024-03-02T02:38:01;98446.41;;;-8.02;82.82
63700;BME280;49845;47.130;142.766;2024-03-02T02:40:34;98343.53;;;-8.58;83.48
63700;BME280;49845;47.130;142.766;2024-03-02T02:43:07;98452.25;;;-8.04;83.43
63700;BME280;49845;47.130;142.766;2024-03-02T02:45:40;98441.81;;;-8.15;83.91
63700;BME280;49845;47.130;142.766;2024-03-02T02:48:13;98443.84;;;-8.03;83.82
63700;BME280;49845;47.130;142.766;2024-03-02T02:50:46;98445.72;;;-7.96;83.29
63700;BME280;49845;47.130;142.766;2024-03-02T02:53:21;98437.31;;;-7.95;83.63
63700;BME280;49845;47.130;142.766;2024-03-02T02:55:54;98433.66;;;-8.05;83.49
63700;BME280;49845;47.130;142.766;2024-03-02T02:58:27;98294.72;;;-8.83;82.53
63700;BME280;49845;47.130;142.766;2024-03-02T03:00:59;98426.50;;;-7.88;83.11
63700;BME280;49845;47.130;142.766;2024-03-02T03:03:33;98428.41;;;-7.79;82.75
63700;BME280;49845;47.130;142.766;2024-03-02T03:06:08;98403.63;;;-7.91;82.82
63700;BME280;49845;47.130;142.766;2024-03-02T03:08:43;98417.34;;;-7.83;81.75
63700;BME280;49845;47.130;142.766;2024-03-02T03:11:16;98425.09;;;-7.76;81.34
63700;BME280;49845;47.130;142.766;2024-03-02T03:13:49;98427.16;;;-7.95;81.21
63700;BME280;49845;47.130;142.766;2024-03-02T03:16:23;98421.25;;;-7.94;81.78
63700;BME280;49845;47.130;142.766;2024-03-02T03:18:57;98385.91;;;-7.89;82.15
63700;BME280;49845;47.130;142.766;2024-03-02T03:21:31;98400.66;;;-7.74;81.00
63700;BME280;49845;47.130;142.766;2024-03-02T03:24:05;98402.47;;;-7.70;81.18
63700;BME280;49845;47.130;142.766;2024-03-02T03:26:38;98392.38;;;-7.67;81.51
63700;BME280;49845;47.130;142.766;2024-03-02T03:29:10;98394.19;;;-7.63;81.38
63700;BME280;49845;47.130;142.766;2024-03-02T03:31:42;98385.41;;;-7.43;82.03
63700;BME280;49845;47.130;142.766;2024-03-02T03:34:15;98384.09;;;-7.27;81.64
63700;BME280;49845;47.130;142.766;2024-03-02T03:36:48;98390.97;;;-7.23;80.98
63700;BME280;49845;47.130;142.766;2024-03-02T03:39:23;98397.31;;;-7.40;81.23
63700;BME280;49845;47.130;142.766;2024-03-02T03:41:57;98401.84;;;-7.28;82.04
63700;BME280;49845;47.130;142.766;2024-03-02T03:44:30;98364.38;;;-7.39;81.64
63700;BME280;49845;47.130;142.766;2024-03-02T03:47:03;98335.75;;;-7.31;81.93
63700;BME280;49845;47.130;142.766;2024-03-02T03:49:37;98389.25;;;-6.87;80.30
63700;BME280;49845;47.130;142.766;2024-03-02T03:52:10;98394.03;;;-7.00;79.09
63700;BME280;49845;47.130;142.766;2024-03-02T03:54:46;98384.56;;;-7.07;79.28
63700;BME280;49845;47.130;142.766;2024-03-02T03:57:19;98383.41;;;-7.21;79.50
63700;BME280;49845;47.130;142.766;2024-03-02T03:59:51;98373.25;;;-7.21;80.28
63700;BME280;49845;47.130;142.766;2024-03-02T04:02:25;98371.38;;;-7.28;80.47
63700;BME280;49845;47.130;142.766;2024-03-02T04:04:57;98252.91;;;-8.02;79.98
63700;BME280;49845;47.130;142.766;2024-03-02T04:07:30;98388.16;;;-6.99;80.47
63700;BME280;49845;47.130;142.766;2024-03-02T04:10:05;98377.50;;;-6.82;79.67
63700;BME280;49845;47.130;142.766;2024-03-02T04:12:38;98382.84;;;-6.70;78.59
63700;BME280;49845;47.130;142.766;2024-03-02T04:15:12;98388.66;;;-6.76;78.45
63700;BME280;49845;47.130;142.766;2024-03-02T04:17:45;98396.31;;;-6.74;78.28
63700;BME280;49845;47.130;142.766;2024-03-02T04:20:18;98382.81;;;-6.73;78.58
63700;BME280;49845;47.130;142.766;2024-03-02T04:22:51;98390.38;;;-6.75;77.63
63700;BME280;49845;47.130;142.766;2024-03-02T04:25:26;98394.69;;;-7.08;78.70
63700;BME280;49845;47.130;142.766;2024-03-02T04:27:59;98371.28;;;-7.31;79.84
63700;BME280;49845;47.130;142.766;2024-03-02T04:30:32;98382.41;;;-7.61;79.54
63700;BME280;49845;47.130;142.766;2024-03-02T04:33:05;98368.97;;;-7.57;80.50
63700;BME280;49845;47.130;142.766;2024-03-02T04:35:40;98371.63;;;-7.52;79.79
63700;BME280;49845;47.130;142.766;2024-03-02T04:38:16;98380.38;;;-7.74;79.51
63700;BME280;49845;47.130;142.766;2024-03-02T04:40:51;98371.72;;;-7.83;80.27
63700;BME280;49845;47.130;142.766;2024-03-02T04:43:27;98369.50;;;-7.69;80.14
63700;BME280;49845;47.130;142.766;2024-03-02T04:45:59;98368.38;;;-7.48;80.63
63700;BME280;49845;47.130;142.766;2024-03-02T04:48:32;98365.84;;;-7.47;80.18
63700;BME280;49845;47.130;142.766;2024-03-02T04:51:06;98367.59;;;-7.46;79.81
63700;BME280;49845;47.130;142.766;2024-03-02T04:53:39;98368.91;;;-7.60;79.69
63700;BME280;49845;47.130;142.766;2024-03-02T04:56:14;98379.06;;;-7.60;79.41
63700;BME280;49845;47.130;142.766;2024-03-02T04:58:59;98381.13;;;-7.78;79.95
63700;BME280;49845;47.130;142.766;2024-03-02T05:01:33;98381.84;;;-7.83;80.81
63700;BME280;49845;47.130;142.766;2024-03-02T05:04:05;98377.56;;;-7.85;80.65
63700;BME280;49845;47.130;142.766;2024-03-02T05:06:39;98386.75;;;-7.89;80.22
63700;BME280;49845;47.130;142.766;2024-03-02T05:09:11;98383.66;;;-7.78;80.04
63700;BME280;49845;47.130;142.766;2024-03-02T05:11:45;98377.09;;;-7.70;79.80
63700;BME280;49845;47.130;142.766;2024-03-02T05:14:31;98372.19;;;-7.64;80.20
63700;BME280;49845;47.130;142.766;2024-03-02T05:17:05;98387.19;;;-7.73;79.24
63700;BME280;49845;47.130;142.766;2024-03-02T05:19:38;98370.78;;;-7.86;79.38
63700;BME280;49845;47.130;142.766;2024-03-02T05:22:11;98381.38;;;-8.01;79.16
63700;BME280;49845;47.130;142.766;2024-03-02T05:24:44;98386.25;;;-8.07;79.46
63700;BME280;49845;47.130;142.766;2024-03-02T05:27:19;98386.19;;;-8.10;79.74
63700;BME280;49845;47.130;142.766;2024-03-02T05:29:51;98384.63;;;-8.05;80.58
63700;BME280;49845;47.130;142.766;2024-03-02T05:32:24;98386.53;;;-7.98;80.99
63700;BME280;49845;47.130;142.766;2024-03-02T05:34:57;98384.91;;;-7.96;80.42
63700;BME280;49845;47.130;142.766;2024-03-02T05:37:30;98379.81;;;-7.96;80.73
63700;BME280;49845;47.130;142.766;2024-03-02T05:40:03;98393.22;;;-8.00;80.47
63700;BME280;49845;47.130;142.766;2024-03-02T05:42:38;98391.19;;;-8.13;81.39
63700;BME280;49845;47.130;142.766;2024-03-02T05:45:11;98388.75;;;-8.09;81.97
63700;BME280;49845;47.130;142.766;2024-03-02T05:47:46;98362.41;;;-8.15;82.72
63700;BME280;49845;47.130;142.766;2024-03-02T05:50:19;98384.63;;;-8.05;82.01
63700;BME280;49845;47.130;142.766;2024-03-02T05:52:58;98389.53;;;-8.11;81.62
63700;BME280;49845;47.130;142.766;2024-03-02T05:55:30;98382.75;;;-8.12;82.06
63700;BME280;49845;47.130;142.766;2024-03-02T05:58:05;98384.47;;;-8.11;82.62
63700;BME280;49845;47.130;142.766;2024-03-02T06:00:52;98374.44;;;-8.08;82.79
63700;BME280;49845;47.130;142.766;2024-03-02T06:03:25;98382.38;;;-7.96;82.89
63700;BME280;49845;47.130;142.766;2024-03-02T06:05:58;98388.22;;;-7.97;82.39
63700;BME280;49845;47.130;142.766;2024-03-02T06:08:31;98398.16;;;-8.06;83.16
63700;BME280;49845;47.130;142.766;2024-03-02T06:11:05;98390.66;;;-8.32;82.93
63700;BME280;49845;47.130;142.766;2024-03-02T06:13:40;98397.53;;;-8.28;83.44
63700;BME280;49845;47.130;142.766;2024-03-02T06:16:13;98395.13;;;-8.23;84.18
63700;BME280;49845;47.130;142.766;2024-03-02T06:18:45;98390.44;;;-8.41;84.19
63700;BME280;49845;47.130;142.766;2024-03-02T06:21:18;98390.34;;;-8.44;84.46
63700;BME280;49845;47.130;142.766;2024-03-02T06:23:50;98395.41;;;-8.44;84.50
63700;BME280;49845;47.130;142.766;2024-03-02T06:26:24;98401.56;;;-8.64;85.28
63700;BME280;49845;47.130;142.766;2024-03-02T06:28:58;98395.66;;;-8.65;86.24
63700;BME280;49845;47.130;142.766;2024-03-02T06:31:32;98398.41;;;-8.57;86.60
63700;BME280;49845;47.130;142.766;2024-03-02T06:34:05;98392.56;;;-8.55;86.25
63700;BME280;49845;47.130;142.766;2024-03-02T06:36:39;98393.41;;;-8.54;86.36
63700;BME280;49845;47.130;142.766;2024-03-02T06:39:12;98401.66;;;-8.61;85.88
63700;BME280;49845;47.130;142.766;2024-03-02T06:41:45;98368.84;;;-8.87;86.45
63700;BME280;49845;47.130;142.766;2024-03-02T06:44:20;98384.38;;;-8.75;87.08
63700;BME280;49845;47.130;142.766;2024-03-02T06:46:53;98380.19;;;-8.74;87.22
63700;BME280;49845;47.130;142.766;2024-03-02T06:49:26;98384.47;;;-8.72;87.55
63700;BME280;49845;47.130;142.766;2024-03-02T06:51:59;98389.81;;;-8.62;87.43
63700;BME280;49845;47.130;142.766;2024-03-02T06:54:32;98388.56;;;-8.48;87.75
63700;BME280;49845;47.130;142.766;2024-03-02T06:57:05;98391.78;;;-8.52;86.67
63700;BME280;49845;47.130;142.766;2024-03-02T06:59:40;98386.47;;;-8.61;86.84
63700;BME280;49845;47.130;142.766;2024-03-02T07:02:12;98389.53;;;-8.72;86.85
63700;BME280;49845;47.130;142.766;2024-03-02T07:04:45;98389.28;;;-8.81;87.32
63700;BME280;49845;47.130;142.766;2024-03-02T07:07:18;98390.06;;;-8.83;87.37
63700;BME280;49845;47.130;142.766;2024-03-02T07:09:51;98387.25;;;-8.91;87.32
63700;BME280;49845;47.130;142.766;2024-03-02T07:12:23;98387.47;;;-8.85;87.64
63700;BME280;49845;47.130;142.766;2024-03-02T07:14:58;98400.28;;;-8.79;87.32
63700;BME280;49845;47.130;142.766;2024-03-02T07:17:55;98323.91;;;-9.23;87.30
63700;BME280;49845;47.130;142.766;2024-03-02T07:20:28;98404.25;;;-8.87;87.21
63700;BME280;49845;47.130;142.766;2024-03-02T07:23:00;98406.09;;;-8.83;87.11
63700;BME280;49845;47.130;142.766;2024-03-02T07:25:33;98400.75;;;-8.92;87.22
63700;BME280;49845;47.130;142.766;2024-03-02T07:28:09;98409.69;;;-9.03;87.31
63700;BME280;49845;47.130;142.766;2024-03-02T07:30:43;98410.00;;;-9.20;87.73
63700;BME280;49845;47.130;142.766;2024-03-02T07:33:18;98419.94;;;-9.26;88.25
63700;BME280;49845;47.130;142.766;2024-03-02T07:35:53;98409.16;;;-9.20;88.58
63700;BME280;49845;47.130;142.766;2024-03-02T07:38:26;98414.22;;;-9.20;88.27
63700;BME280;49845;47.130;142.766;2024-03-02T07:40:59;98411.38;;;-9.29;88.23
63700;BME280;49845;47.130;142.766;2024-03-02T07:43:33;98393.03;;;-9.49;88.50
63700;BME280;49845;47.130;142.766;2024-03-02T07:46:07;98415.88;;;-9.46;88.97
63700;BME280;49845;47.130;142.766;2024-03-02T07:48:40;98415.47;;;-9.59;89.81
63700;BME280;49845;47.130;142.766;2024-03-02T07:51:15;98423.72;;;-9.64;90.25
63700;BME280;49845;47.130;142.766;2024-03-02T07:53:48;98416.69;;;-9.73;90.75
63700;BME280;49845;47.130;142.766;2024-03-02T07:56:21;98407.06;;;-9.83;91.40
63700;BME280;49845;47.130;142.766;2024-03-02T07:58:54;98419.72;;;-9.83;91.60
63700;BME280;49845;47.130;142.766;2024-03-02T08:01:29;98368.69;;;-10.21;91.91
63700;BME280;49845;47.130;142.766;2024-03-02T08:04:03;98431.28;;;-9.88;92.15
63700;BME280;49845;47.130;142.766;2024-03-02T08:06:35;98436.16;;;-9.94;92.38
63700;BME280;49845;47.130;142.766;2024-03-02T08:09:08;98428.38;;;-10.01;92.07
63700;BME280;49845;47.130;142.766;2024-03-02T08:11:41;98426.47;;;-10.06;92.56
63700;BME280;49845;47.130;142.766;2024-03-02T08:14:14;98435.63;;;-10.10;92.53
63700;BME280;49845;47.130;142.766;2024-03-02T08:16:49;98431.97;;;-10.18;92.12
63700;BME280;49845;47.130;142.766;2024-03-02T08:19:22;98437.69;;;-10.22;92.36
63700;BME280;49845;47.130;142.766;2024-03-02T08:21:55;98435.09;;;-10.24;92.43
63700;BME280;49845;47.130;142.766;2024-03-02T08:24:29;98442.44;;;-10.31;92.67
63700;BME280;49845;47.130;142.766;2024-03-02T08:27:01;98436.47;;;-10.33;92.85
63700;BME280;49845;47.130;142.766;2024-03-02T08:29:34;98438.94;;;-10.35;93.01
63700;BME280;49845;47.130;142.766;2024-03-02T08:32:09;98434.66;;;-10.37;93.21
63700;BME280;49845;47.130;142.766;2024-03-02T08:34:41;98441.31;;;-10.39;93.39
63700;BME280;49845;47.130;142.766;2024-03-02T08:37:14;98440.38;;;-10.42;93.82
63700;BME280;49845;47.130;142.766;2024-03-02T08:39:47;98449.69;;;-10.40;93.85
63700;BME280;49845;47.130;142.766;2024-03-02T08:42:20;98441.09;;;-10.46;94.09
63700;BME280;49845;47.130;142.766;2024-03-02T08:44:53;98453.81;;;-10.43;94.43
63700;BME280;49845;47.130;142.766;2024-03-02T08:47:28;98449.56;;;-10.44;94.53
63700;BME280;49845;47.130;142.766;2024-03-02T08:50:01;98392.91;;;-10.74;94.63
63700;BME280;49845;47.130;142.766;2024-03-02T08:52:35;98447.91;;;-10.43;94.82
63700;BME280;49845;47.130;142.766;2024-03-02T08:55:09;98435.91;;;-10.49;94.92
63700;BME280;49845;47.130;142.766;2024-03-02T08:57:42;98441.19;;;-10.43;94.94
63700;BME280;49845;47.130;142.766;2024-03-02T09:00:16;98449.63;;;-10.42;95.06
63700;BME280;49845;47.130;142.766;2024-03-02T09:02:52;98455.53;;;-10.42;95.23
63700;BME280;49845;47.130;142.766;2024-03-02T09:05:24;98465.72;;;-10.38;95.28
63700;BME280;49845;47.130;142.766;2024-03-02T09:07:57;98466.56;;;-10.39;95.26
63700;BME280;49845;47.130;142.766;2024-03-02T09:10:30;98470.00;;;-10.37;95.53
63700;BME280;49845;47.130;142.766;2024-03-02T09:13:04;98466.66;;;-10.36;95.61
63700;BME280;49845;47.130;142.766;2024-03-02T09:15:37;98471.06;;;-10.31;95.62
63700;BME280;49845;47.130;142.766;2024-03-02T09:18:13;98477.06;;;-10.27;95.50
63700;BME280;49845;47.130;142.766;2024-03-02T09:20:46;98480.31;;;-10.31;95.45
63700;BME280;49845;47.130;142.766;2024-03-02T09:23:18;98466.75;;;-10.33;95.60
63700;BME280;49845;47.130;142.766;2024-03-02T09:25:51;98473.56;;;-10.32;95.85
63700;BME280;49845;47.130;142.766;2024-03-02T09:28:24;98476.00;;;-10.34;95.80
63700;BME280;49845;47.130;142.766;2024-03-02T09:30:57;98476.88;;;-10.33;96.31
63700;BME280;49845;47.130;142.766;2024-03-02T09:33:32;98476.88;;;-10.33;96.35
63700;BME280;49845;47.130;142.766;2024-03-02T09:36:05;98475.16;;;-10.34;96.46
63700;BME280;49845;47.130;142.766;2024-03-02T09:38:39;98481.91;;;-10.33;96.96
63700;BME280;49845;47.130;142.766;2024-03-02T09:41:12;98465.72;;;-10.38;97.01
63700;BME280;49845;47.130;142.766;2024-03-02T09:43:46;98484.44;;;-10.33;96.95
63700;BME280;49845;47.130;142.766;2024-03-02T09:46:20;98486.09;;;-10.34;97.31
63700;BME280;49845;47.130;142.766;2024-03-02T09:48:55;98490.31;;;-10.34;97.58
63700;BME280;49845;47.130;142.766;2024-03-02T09:51:28;98483.69;;;-10.31;97.57
63700;BME280;49845;47.130;142.766;2024-03-02T09:54:02;98485.38;;;-10.31;97.44
63700;BME280;49845;47.130;142.766;2024-03-02T09:56:50;98496.97;;;-10.36;97.84
63700;BME280;49845;47.130;142.766;2024-03-02T09:59:23;98517.25;;;-10.33;98.13
63700;BME280;49845;47.130;142.766;2024-03-02T10:01:58;98505.25;;;-10.40;97.94
63700;BME280;49845;47.130;142.766;2024-03-02T10:04:33;98503.84;;;-10.32;98.18
63700;BME280;49845;47.130;142.766;2024-03-02T10:07:16;98496.97;;;-10.36;98.25
63700;BME280;49845;47.130;142.766;2024-03-02T10:09:50;98498.91;;;-10.29;98.31
63700;BME280;49845;47.130;142.766;2024-03-02T10:12:23;98514.13;;;-10.26;98.26
63700;BME280;49845;47.130;142.766;2024-03-02T10:15:04;98509.84;;;-10.30;98.46
63700;BME280;49845;47.130;142.766;2024-03-02T10:17:39;98509.69;;;-10.33;98.91
63700;BME280;49845;47.130;142.766;2024-03-02T10:20:26;98456.91;;;-10.72;99.43
63700;BME280;49845;47.130;142.766;2024-03-02T10:23:10;98455.16;;;-10.73;99.84
63700;BME280;49845;47.130;142.766;2024-03-02T10:25:44;98530.50;;;-10.40;100.00
63700;BME280;49845;47.130;142.766;2024-03-02T10:28:26;98526.94;;;-10.46;100.00
63700;BME280;49845;47.130;142.766;2024-03-02T10:31:00;98530.13;;;-10.50;100.00
63700;BME280;49845;47.130;142.766;2024-03-02T10:33:35;98523.34;;;-10.51;100.00
63700;BME280;49845;47.130;142.766;2024-03-02T10:36:10;98533.44;;;-10.51;100.00
63700;BME280;49845;47.130;142.766;2024-03-02T10:38:43;98543.53;;;-10.51;100.00
63700;BME280;49845;47.130;142.766;2024-03-02T10:41:19;98542.50;;;-10.56;100.00
63700;BME280;49845;47.130;142.766;2024-03-02T10:43:55;98551.69;;;-10.58;100.00
63700;BME280;49845;47.130;142.766;2024-03-02T10:46:30;98548.34;;;-10.57;100.00
63700;BME280;49845;47.130;142.766;2024-03-02T10:49:04;98548.34;;;-10.57;100.00
63700;BME280;49845;47.130;142.766;2024-03-02T10:51:39;98545.72;;;-10.60;100.00
63700;BME280;49845;47.130;142.766;2024-03-02T10:54:12;98538.50;;;-10.72;100.00
63700;BME280;49845;47.130;142.766;2024-03-02T10:56:45;98535.13;;;-10.72;100.00
63700;BME280;49845;47.130;142.766;2024-03-02T10:59:31;98553.41;;;-10.78;100.00
63700;BME280;49845;47.130;142.766;2024-03-02T11:02:05;98583.06;;;-10.72;100.00
63700;BME280;49845;47.130;142.766;2024-03-02T11:04:40;98473.03;;;-11.32;100.00
63700;BME280;49845;47.130;142.766;2024-03-02T11:07:16;98573.75;;;-10.73;100.00
63700;BME280;49845;47.130;142.766;2024-03-02T11:09:56;98570.91;;;-10.82;100.00
63700;BME280;49845;47.130;142.766;2024-03-02T11:12:29;98594.75;;;-10.74;100.00
63700;BME280;49845;47.130;142.766;2024-03-02T11:15:05;98592.31;;;-10.73;100.00
63700;BME280;49845;47.130;142.766;2024-03-02T11:17:40;98593.91;;;-10.75;100.00
63700;BME280;49845;47.130;142.766;2024-03-02T11:20:12;98585.91;;;-10.86;100.00
63700;BME280;49845;47.130;142.766;2024-03-02T11:22:49;98597.94;;;-10.78;100.00
63700;BME280;49845;47.130;142.766;2024-03-02T11:25:25;98606.34;;;-10.79;100.00
63700;BME280;49845;47.130;142.766;2024-03-02T11:28:05;98602.03;;;-10.82;100.00
63700;BME280;49845;47.130;142.766;2024-03-02T11:30:55;98609.53;;;-10.83;100.00
63700;BME280;49845;47.130;142.766;2024-03-02T11:33:28;98592.16;;;-10.97;100.00
63700;BME280;49845;47.130;142.766;2024-03-02T11:36:01;98610.25;;;-10.86;100.00
63700;BME280;49845;47.130;142.766;2024-03-02T11:38:39;98609.00;;;-10.96;100.00
63700;BME280;49845;47.130;142.766;2024-03-02T11:41:17;98622.66;;;-10.91;100.00
63700;BME280;49845;47.130;142.766;2024-03-02T11:43:51;98612.22;;;-11.00;100.00
63700;BME280;49845;47.130;142.766;2024-03-02T11:46:23;98626.00;;;-10.92;100.00
63700;BME280;49845;47.130;142.766;2024-03-02T11:48:58;98627.47;;;-10.97;100.00
63700;BME280;49845;47.130;142.766;2024-03-02T11:51:34;98600.81;;;-11.11;100.00
63700;BME280;49845;47.130;142.766;2024-03-02T11:54:10;98618.84;;;-11.02;100.00
63700;BME280;49845;47.130;142.766;2024-03-02T11:56:43;98630.81;;;-10.98;100.00
63700;BME280;49845;47.130;142.766;2024-03-02T11:59:16;98639.28;;;-10.96;100.00
63700;BME280;49845;47.130;142.766;2024-03-02T12:01:50;98625.38;;;-11.07;100.00
63700;BME280;49845;47.130;142.766;2024-03-02T12:04:24;98644.19;;;-10.99;100.00
63700;BME280;49845;47.130;142.766;2024-03-02T12:06:56;98650.84;;;-11.01;100.00
63700;BME280;49845;47.130;142.766;2024-03-02T12:09:33;98639.88;;;-11.01;100.00
63700;BME280;49845;47.130;142.766;2024-03-02T12:12:07;98667.72;;;-11.00;100.00
63700;BME280;49845;47.130;142.766;2024-03-02T12:14:40;98637.31;;;-11.03;100.00
63700;BME280;49845;47.130;142.766;2024-03-02T12:17:22;98669.19;;;-11.05;100.00
63700;BME280;49845;47.130;142.766;2024-03-02T12:19:55;98663.84;;;-11.11;100.00
63700;BME280;49845;47.130;142.766;2024-03-02T12:22:29;98660.28;;;-11.16;100.00
63700;BME280;49845;47.130;142.766;2024-03-02T12:25:04;98668.66;;;-11.17;100.00
63700;BME280;49845;47.130;142.766;2024-03-02T12:27:38;98670.22;;;-11.19;100.00
63700;BME280;49845;47.130;142.766;2024-03-02T12:30:11;98677.72;;;-11.21;100.00
63700;BME280;49845;47.130;142.766;2024-03-02T12:32:44;98664.53;;;-11.35;100.00
63700;BME280;49845;47.130;142.766;2024-03-02T12:35:18;98671.56;;;-11.27;100.00
63700;BME280;49845;47.130;142.766;2024-03-02T12:37:52;98703.81;;;-11.20;100.00
63700;BME280;49845;47.130;142.766;2024-03-02T12:40:27;98700.50;;;-11.19;99.71
63700;BME280;49845;47.130;142.766;2024-03-02T12:43:00;98705.53;;;-11.19;99.56
63700;BME280;49845;47.130;142.766;2024-03-02T12:45:33;98698.63;;;-11.23;98.29
63700;BME280;49845;47.130;142.766;2024-03-02T12:48:07;98716.34;;;-11.22;98.38
63700;BME280;49845;47.130;142.766;2024-03-02T12:50:40;98720.53;;;-11.22;98.86
63700;BME280;49845;47.130;142.766;2024-03-02T12:53:16;98728.88;;;-11.23;97.99
63700;BME280;49845;47.130;142.766;2024-03-02T12:55:51;98708.31;;;-11.33;98.33
63700;BME280;49845;47.130;142.766;2024-03-02T12:58:26;98728.75;;;-11.26;98.27
63700;BME280;49845;47.130;142.766;2024-03-02T13:01:09;98719.03;;;-11.37;97.84
63700;BME280;49845;47.130;142.766;2024-03-02T13:03:44;98746.34;;;-11.28;97.96
63700;BME280;49845;47.130;142.766;2024-03-02T13:06:17;98709.63;;;-11.59;97.80
63700;BME280;49845;47.130;142.766;2024-03-02T13:08:51;98764.78;;;-11.29;97.54
63700;BME280;49845;47.130;142.766;2024-03-02T13:11:26;98763.91;;;-11.30;97.84